sensor_id;sensor_type;location;lat;lon;timestamp;P1;durP1;ratioP1;P2;durP2;ratioP2
3423;SDS011;72707;50.120;8.500;2024-01-27T00:01:13;15.70;;;14.03;;
3423;SDS011;72707;50.120;8.500;2024-01-27T00:03:39;16.17;;;14.60;;
3423;SDS011;72707;50.120;8.500;2024-01-27T00:06:05;17.30;;;15.30;;
3423;SDS011;72707;50.120;8.500;2024-01-27T00:08:31;20.07;;;16.60;;
3423;SDS011;72707;50.120;8.500;2024-01-27T00:10:57;19.20;;;15.43;;
3423;SDS011;72707;50.120;8.500;2024-01-27T00:13:24;16.10;;;14.20;;
3423;SDS011;72707;50.120;8.500;2024-01-27T00:15:50;15.37;;;13.13;;
3423;SDS011;72707;50.120;8.500;2024-01-27T00:18:19;15.53;;;10.03;;
3423;SDS011;72707;50.120;8.500;2024-01-27T00:20:45;17.47;;;10.73;;
3423;SDS011;72707;50.120;8.500;2024-01-27T00:23:12;21.03;;;10.83;;
3423;SDS011;72707;50.120;8.500;2024-01-27T00:25:38;17.90;;;11.17;;
3423;SDS011;72707;50.120;8.500;2024-01-27T00:28:04;14.90;;;10.00;;
3423;SDS011;72707;50.120;8.500;2024-01-27T00:30:29;21.43;;;11.57;;
3423;SDS011;72707;50.120;8.500;2024-01-27T00:32:55;11.47;;;8.83;;
3423;SDS011;72707;50.120;8.500;2024-01-27T00:35:23;17.33;;;10.67;;
3423;SDS011;72707;50.120;8.500;2024-01-27T00:37:49;12.63;;;8.37;;
3423;SDS011;72707;50.120;8.500;2024-01-27T00:40:15;18.50;;;10.37;;
3423;SDS011;72707;50.120;8.500;2024-01-27T00:42:42;14.43;;;8.57;;
3423;SDS011;72707;50.120;8.500;2024-01-27T00:45:08;13.57;;;8.93;;
3423;SDS011;72707;50.120;8.500;2024-01-27T00:47:34;11.13;;;8.83;;
3423;SDS011;72707;50.120;8.500;2024-01-27T00:50:01;15.03;;;10.73;;
3423;SDS011;72707;50.120;8.500;2024-01-27T00:52:27;13.83;;;10.20;;
3423;SDS011;72707;50.120;8.500;2024-01-27T00:54:53;12.03;;;9.53;;
3423;SDS011;72707;50.120;8.500;2024-01-27T00:57:19;19.37;;;11.20;;
3423;SDS011;72707;50.120;8.500;2024-01-27T00:59:45;10.13;;;9.13;;
3423;SDS011;72707;50.120;8.500;2024-01-27T01:02:11;13.90;;;10.53;;
3423;SDS011;72707;50.120;8.500;2024-01-27T01:04:37;11.07;;;9.80;;
3423;SDS011;72707;50.120;8.500;2024-01-27T01:07:02;14.40;;;10.80;;
3423;SDS011;72707;50.120;8.500;2024-01-27T01:09:30;17.90;;;12.10;;
3423;SDS011;72707;50.120;8.500;2024-01-27T01:11:56;13.80;;;9.83;;
3423;SDS011;72707;50.120;8.500;2024-01-27T01:14:22;18.10;;;10.70;;
3423;SDS011;72707;50.120;8.500;2024-01-27T01:16:48;16.57;;;9.70;;
3423;SDS011;72707;50.120;8.500;2024-01-27T01:19:15;19.13;;;12.00;;
3423;SDS011;72707;50.120;8.500;2024-01-27T01:21:40;15.27;;;9.90;;
3423;SDS011;72707;50.120;8.500;2024-01-27T01:24:06;15.97;;;10.53;;
3423;SDS011;72707;50.120;8.500;2024-01-27T01:26:32;17.80;;;11.27;;
3423;SDS011;72707;50.120;8.500;2024-01-27T01:28:58;11.87;;;9.57;;
3423;SDS011;72707;50.120;8.500;2024-01-27T01:31:24;11.23;;;9.90;;
3423;SDS011;72707;50.120;8.500;2024-01-27T01:33:50;22.70;;;11.53;;
3423;SDS011;72707;50.120;8.500;2024-01-27T01:36:17;14.43;;;9.57;;
3423;SDS011;72707;50.120;8.500;2024-01-27T01:38:43;21.87;;;14.07;;
3423;SDS011;72707;50.120;8.500;2024-01-27T01:41:09;14.80;;;12.50;;
3423;SDS011;72707;50.120;8.500;2024-01-27T01:43:35;18.37;;;13.33;;
3423;SDS011;72707;50.120;8.500;2024-01-27T01:46:01;13.20;;;11.43;;
3423;SDS011;72707;50.120;8.500;2024-01-27T01:48:28;19.40;;;13.77;;
3423;SDS011;72707;50.120;8.500;2024-01-27T01:50:54;16.10;;;12.90;;
3423;SDS011;72707;50.120;8.500;2024-01-27T01:53:20;20.97;;;13.60;;
3423;SDS011;72707;50.120;8.500;2024-01-27T01:55:47;16.37;;;12.70;;
3423;SDS011;72707;50.120;8.500;2024-01-27T01:58:15;18.70;;;12.67;;
3423;SDS011;72707;50.120;8.500;2024-01-27T02:00:41;20.60;;;13.17;;
3423;SDS011;72707;50.120;8.500;2024-01-27T02:03:12;10.90;;;9.80;;
3423;SDS011;72707;50.120;8.500;2024-01-27T02:05:40;12.37;;;9.70;;
3423;SDS011;72707;50.120;8.500;2024-01-27T02:08:05;9.80;;;7.17;;
3423;SDS011;72707;50.120;8.500;2024-01-27T02:10:33;6.67;;;6.10;;
3423;SDS011;72707;50.120;8.500;2024-01-27T02:13:02;5.87;;;5.07;;
3423;SDS011;72707;50.120;8.500;2024-01-27T02:15:30;13.63;;;9.13;;
3423;SDS011;72707;50.120;8.500;2024-01-27T02:17:57;6.50;;;4.33;;
3423;SDS011;72707;50.120;8.500;2024-01-27T02:20:23;15.77;;;6.70;;
3423;SDS011;72707;50.120;8.500;2024-01-27T02:22:49;6.47;;;5.40;;
3423;SDS011;72707;50.120;8.500;2024-01-27T02:25:15;5.00;;;4.53;;
3423;SDS011;72707;50.120;8.500;2024-01-27T02:27:40;6.87;;;4.80;;
3423;SDS011;72707;50.120;8.500;2024-01-27T02:30:06;8.67;;;4.07;;
3423;SDS011;72707;50.120;8.500;2024-01-27T02:32:32;7.53;;;5.07;;
3423;SDS011;72707;50.120;8.500;2024-01-27T02:34:59;3.83;;;3.27;;
3423;SDS011;72707;50.120;8.500;2024-01-27T02:37:26;6.73;;;4.97;;
3423;SDS011;72707;50.120;8.500;2024-01-27T02:39:51;7.00;;;4.57;;
3423;SDS011;72707;50.120;8.500;2024-01-27T02:42:17;7.33;;;4.10;;
3423;SDS011;72707;50.120;8.500;2024-01-27T02:44:43;10.13;;;5.63;;
3423;SDS011;72707;50.120;8.500;2024-01-27T02:47:10;4.93;;;4.60;;
3423;SDS011;72707;50.120;8.500;2024-01-27T02:49:36;12.97;;;6.23;;
3423;SDS011;72707;50.120;8.500;2024-01-27T02:52:03;10.10;;;6.40;;
3423;SDS011;72707;50.120;8.500;2024-01-27T02:54:29;5.90;;;5.33;;
3423;SDS011;72707;50.120;8.500;2024-01-27T02:56:55;5.70;;;5.23;;
3423;SDS011;72707;50.120;8.500;2024-01-27T02:59:20;7.00;;;5.57;;
3423;SDS011;72707;50.120;8.500;2024-01-27T03:01:46;10.77;;;7.00;;
3423;SDS011;72707;50.120;8.500;2024-01-27T03:04:12;7.63;;;5.67;;
3423;SDS011;72707;50.120;8.500;2024-01-27T03:06:38;6.13;;;5.20;;
3423;SDS011;72707;50.120;8.500;2024-01-27T03:09:04;10.47;;;7.07;;
3423;SDS011;72707;50.120;8.500;2024-01-27T03:11:30;6.50;;;6.00;;
3423;SDS011;72707;50.120;8.500;2024-01-27T03:13:56;7.17;;;6.57;;
3423;SDS011;72707;50.120;8.500;2024-01-27T03:16:22;5.93;;;5.57;;
3423;SDS011;72707;50.120;8.500;2024-01-27T03:18:48;8.03;;;7.33;;
3423;SDS011;72707;50.120;8.500;2024-01-27T03:21:14;6.53;;;5.90;;
3423;SDS011;72707;50.120;8.500;2024-01-27T03:23:40;8.33;;;6.60;;
3423;SDS011;72707;50.120;8.500;2024-01-27T03:26:06;8.90;;;6.90;;
3423;SDS011;72707;50.120;8.500;2024-01-27T03:28:33;8.23;;;7.47;;
3423;SDS011;72707;50.120;8.500;2024-01-27T03:30:59;8.93;;;8.17;;
3423;SDS011;72707;50.120;8.500;2024-01-27T03:33:25;9.47;;;8.87;;
3423;SDS011;72707;50.120;8.500;2024-01-27T03:35:57;9.77;;;8.97;;
3423;SDS011;72707;50.120;8.500;2024-01-27T03:38:22;12.87;;;10.07;;
3423;SDS011;72707;50.120;8.500;2024-01-27T03:40:50;9.87;;;9.07;;
3423;SDS011;72707;50.120;8.500;2024-01-27T03:43:15;12.07;;;10.90;;
3423;SDS011;72707;50.120;8.500;2024-01-27T03:45:41;12.57;;;11.37;;
3423;SDS011;72707;50.120;8.500;2024-01-27T03:48:07;11.50;;;10.53;;
3423;SDS011;72707;50.120;8.500;2024-01-27T03:50:34;10.13;;;9.17;;
3423;SDS011;72707;50.120;8.500;2024-01-27T03:52:59;14.60;;;10.50;;
3423;SDS011;72707;50.120;8.500;2024-01-27T03:55:27;13.03;;;11.77;;
3423;SDS011;72707;50.120;8.500;2024-01-27T03:57:52;13.50;;;11.73;;
3423;SDS011;72707;50.120;8.500;2024-01-27T04:00:18;13.63;;;12.17;;
3423;SDS011;72707;50.120;8.500;2024-01-27T04:02:45;11.67;;;10.77;;
3423;SDS011;72707;50.120;8.500;2024-01-27T04:05:12;15.93;;;14.27;;
3423;SDS011;72707;50.120;8.500;2024-01-27T04:07:39;9.93;;;9.10;;
3423;SDS011;72707;50.120;8.500;2024-01-27T04:10:05;9.77;;;9.10;;
3423;SDS011;72707;50.120;8.500;2024-01-27T04:12:32;10.53;;;9.63;;
3423;SDS011;72707;50.120;8.500;2024-01-27T04:14:58;11.33;;;10.33;;
3423;SDS011;72707;50.120;8.500;2024-01-27T04:17:24;15.33;;;10.07;;
3423;SDS011;72707;50.120;8.500;2024-01-27T04:19:50;13.53;;;12.13;;
3423;SDS011;72707;50.120;8.500;2024-01-27T04:22:16;12.60;;;11.10;;
3423;SDS011;72707;50.120;8.500;2024-01-27T04:24:43;12.33;;;11.43;;
3423;SDS011;72707;50.120;8.500;2024-01-27T04:27:10;12.30;;;11.37;;
3423;SDS011;72707;50.120;8.500;2024-01-27T04:29:36;16.40;;;13.63;;
3423;SDS011;72707;50.120;8.500;2024-01-27T04:32:02;12.97;;;11.83;;
3423;SDS011;72707;50.120;8.500;2024-01-27T04:34:28;14.60;;;12.90;;
3423;SDS011;72707;50.120;8.500;2024-01-27T04:36:54;15.10;;;13.50;;
3423;SDS011;72707;50.120;8.500;2024-01-27T04:39:20;13.90;;;12.50;;
3423;SDS011;72707;50.120;8.500;2024-01-27T04:41:45;12.37;;;11.20;;
3423;SDS011;72707;50.120;8.500;2024-01-27T04:44:13;12.60;;;11.63;;
3423;SDS011;72707;50.120;8.500;2024-01-27T04:46:39;17.63;;;15.83;;
3423;SDS011;72707;50.120;8.500;2024-01-27T04:49:04;16.60;;;15.07;;
3423;SDS011;72707;50.120;8.500;2024-01-27T04:51:30;15.03;;;11.97;;
3423;SDS011;72707;50.120;8.500;2024-01-27T04:53:56;13.80;;;12.43;;
3423;SDS011;72707;50.120;8.500;2024-01-27T04:56:23;13.77;;;12.63;;
3423;SDS011;72707;50.120;8.500;2024-01-27T04:58:49;15.13;;;12.03;;
3423;SDS011;72707;50.120;8.500;2024-01-27T05:01:15;14.10;;;12.27;;
3423;SDS011;72707;50.120;8.500;2024-01-27T05:03:41;11.30;;;10.40;;
3423;SDS011;72707;50.120;8.500;2024-01-27T05:06:07;12.17;;;11.20;;
3423;SDS011;72707;50.120;8.500;2024-01-27T05:08:34;12.20;;;11.10;;
3423;SDS011;72707;50.120;8.500;2024-01-27T05:11:00;11.57;;;10.53;;
3423;SDS011;72707;50.120;8.500;2024-01-27T05:13:27;14.57;;;12.90;;
3423;SDS011;72707;50.120;8.500;2024-01-27T05:15:53;28.10;;;17.13;;
3423;SDS011;72707;50.120;8.500;2024-01-27T05:18:19;10.77;;;9.87;;
3423;SDS011;72707;50.120;8.500;2024-01-27T05:20:45;12.43;;;11.23;;
3423;SDS011;72707;50.120;8.500;2024-01-27T05:23:13;9.87;;;9.07;;
3423;SDS011;72707;50.120;8.500;2024-01-27T05:25:40;11.23;;;10.30;;
3423;SDS011;72707;50.120;8.500;2024-01-27T05:28:06;15.53;;;10.23;;
3423;SDS011;72707;50.120;8.500;2024-01-27T05:30:32;12.83;;;11.33;;
3423;SDS011;72707;50.120;8.500;2024-01-27T05:32:58;11.43;;;9.67;;
3423;SDS011;72707;50.120;8.500;2024-01-27T05:35:24;21.80;;;13.40;;
3423;SDS011;72707;50.120;8.500;2024-01-27T05:37:50;11.17;;;10.03;;
3423;SDS011;72707;50.120;8.500;2024-01-27T05:40:16;23.33;;;13.80;;
3423;SDS011;72707;50.120;8.500;2024-01-27T05:42:42;11.30;;;10.13;;
3423;SDS011;72707;50.120;8.500;2024-01-27T05:45:10;10.70;;;9.57;;
3423;SDS011;72707;50.120;8.500;2024-01-27T05:47:36;10.50;;;9.53;;
3423;SDS011;72707;50.120;8.500;2024-01-27T05:50:03;10.27;;;9.47;;
3423;SDS011;72707;50.120;8.500;2024-01-27T05:52:32;19.30;;;10.50;;
3423;SDS011;72707;50.120;8.500;2024-01-27T05:54:59;12.07;;;11.00;;
3423;SDS011;72707;50.120;8.500;2024-01-27T05:57:27;12.07;;;10.97;;
3423;SDS011;72707;50.120;8.500;2024-01-27T05:59:52;13.03;;;10.67;;
3423;SDS011;72707;50.120;8.500;2024-01-27T06:02:19;15.23;;;11.53;;
3423;SDS011;72707;50.120;8.500;2024-01-27T06:04:45;14.43;;;13.10;;
3423;SDS011;72707;50.120;8.500;2024-01-27T06:07:11;17.30;;;12.73;;
3423;SDS011;72707;50.120;8.500;2024-01-27T06:09:37;13.77;;;12.43;;
3423;SDS011;72707;50.120;8.500;2024-01-27T06:12:04;13.70;;;12.27;;
3423;SDS011;72707;50.120;8.500;2024-01-27T06:14:30;12.80;;;11.53;;
3423;SDS011;72707;50.120;8.500;2024-01-27T06:16:56;11.07;;;10.13;;
3423;SDS011;72707;50.120;8.500;2024-01-27T06:19:23;16.90;;;11.10;;
3423;SDS011;72707;50.120;8.500;2024-01-27T06:21:48;12.00;;;10.80;;
3423;SDS011;72707;50.120;8.500;2024-01-27T06:24:14;14.17;;;11.20;;
3423;SDS011;72707;50.120;8.500;2024-01-27T06:26:40;15.43;;;12.20;;
3423;SDS011;72707;50.120;8.500;2024-01-27T06:29:07;13.17;;;11.80;;
3423;SDS011;72707;50.120;8.500;2024-01-27T06:31:33;12.13;;;11.17;;
3423;SDS011;72707;50.120;8.500;2024-01-27T06:33:59;21.83;;;14.13;;
3423;SDS011;72707;50.120;8.500;2024-01-27T06:36:25;12.13;;;10.90;;
3423;SDS011;72707;50.120;8.500;2024-01-27T06:38:52;14.50;;;12.93;;
3423;SDS011;72707;50.120;8.500;2024-01-27T06:41:19;13.67;;;12.37;;
3423;SDS011;72707;50.120;8.500;2024-01-27T06:43:45;13.10;;;11.90;;
3423;SDS011;72707;50.120;8.500;2024-01-27T06:46:11;16.43;;;12.77;;
3423;SDS011;72707;50.120;8.500;2024-01-27T06:48:37;18.37;;;13.87;;
3423;SDS011;72707;50.120;8.500;2024-01-27T06:51:03;12.00;;;10.77;;
3423;SDS011;72707;50.120;8.500;2024-01-27T06:53:32;18.63;;;13.13;;
3423;SDS011;72707;50.120;8.500;2024-01-27T06:55:58;15.13;;;13.57;;
3423;SDS011;72707;50.120;8.500;2024-01-27T06:58:24;14.37;;;12.93;;
3423;SDS011;72707;50.120;8.500;2024-01-27T07:00:51;13.67;;;12.03;;
3423;SDS011;72707;50.120;8.500;2024-01-27T07:03:17;14.57;;;12.07;;
3423;SDS011;72707;50.120;8.500;2024-01-27T07:05:43;17.60;;;13.63;;
3423;SDS011;72707;50.120;8.500;2024-01-27T07:08:09;15.63;;;13.97;;
3423;SDS011;72707;50.120;8.500;2024-01-27T07:10:35;12.77;;;11.63;;
3423;SDS011;72707;50.120;8.500;2024-01-27T07:13:01;14.30;;;13.03;;
3423;SDS011;72707;50.120;8.500;2024-01-27T07:15:27;17.23;;;15.83;;
3423;SDS011;72707;50.120;8.500;2024-01-27T07:17:54;16.20;;;14.50;;
3423;SDS011;72707;50.120;8.500;2024-01-27T07:20:20;20.80;;;17.10;;
3423;SDS011;72707;50.120;8.500;2024-01-27T07:22:48;27.07;;;20.13;;
3423;SDS011;72707;50.120;8.500;2024-01-27T07:25:14;13.20;;;12.03;;
3423;SDS011;72707;50.120;8.500;2024-01-27T07:27:40;26.30;;;16.10;;
3423;SDS011;72707;50.120;8.500;2024-01-27T07:30:06;14.97;;;13.43;;
3423;SDS011;72707;50.120;8.500;2024-01-27T07:32:35;14.77;;;13.37;;
3423;SDS011;72707;50.120;8.500;2024-01-27T07:35:01;16.47;;;15.23;;
3423;SDS011;72707;50.120;8.500;2024-01-27T07:37:28;16.97;;;15.50;;
3423;SDS011;72707;50.120;8.500;2024-01-27T07:39:54;20.57;;;17.63;;
3423;SDS011;72707;50.120;8.500;2024-01-27T07:42:19;18.07;;;16.07;;
3423;SDS011;72707;50.120;8.500;2024-01-27T07:44:45;41.93;;;21.77;;
3423;SDS011;72707;50.120;8.500;2024-01-27T07:47:11;20.13;;;18.27;;
3423;SDS011;72707;50.120;8.500;2024-01-27T07:49:37;21.30;;;19.33;;
3423;SDS011;72707;50.120;8.500;2024-01-27T07:52:03;23.60;;;21.10;;
3423;SDS011;72707;50.120;8.500;2024-01-27T07:54:30;25.60;;;22.27;;
3423;SDS011;72707;50.120;8.500;2024-01-27T07:56:58;21.70;;;19.57;;
3423;SDS011;72707;50.120;8.500;2024-01-27T07:59:24;37.83;;;27.53;;
3423;SDS011;72707;50.120;8.500;2024-01-27T08:01:50;33.40;;;26.37;;
3423;SDS011;72707;50.120;8.500;2024-01-27T08:04:17;30.13;;;23.67;;
3423;SDS011;72707;50.120;8.500;2024-01-27T08:06:46;19.23;;;17.20;;
3423;SDS011;72707;50.120;8.500;2024-01-27T08:09:13;22.70;;;18.40;;
3423;SDS011;72707;50.120;8.500;2024-01-27T08:11:39;22.73;;;20.93;;
3423;SDS011;72707;50.120;8.500;2024-01-27T08:14:06;22.37;;;20.03;;
3423;SDS011;72707;50.120;8.500;2024-01-27T08:16:33;22.53;;;20.27;;
3423;SDS011;72707;50.120;8.500;2024-01-27T08:18:59;21.03;;;19.17;;
3423;SDS011;72707;50.120;8.500;2024-01-27T08:21:25;20.67;;;18.83;;
3423;SDS011;72707;50.120;8.500;2024-01-27T08:23:51;24.53;;;21.73;;
3423;SDS011;72707;50.120;8.500;2024-01-27T08:26:17;21.20;;;19.40;;
3423;SDS011;72707;50.120;8.500;2024-01-27T08:28:45;29.23;;;23.73;;
3423;SDS011;72707;50.120;8.500;2024-01-27T08:31:14;19.07;;;17.27;;
3423;SDS011;72707;50.120;8.500;2024-01-27T08:33:40;17.30;;;15.97;;
3423;SDS011;72707;50.120;8.500;2024-01-27T08:36:06;18.63;;;17.27;;
3423;SDS011;72707;50.120;8.500;2024-01-27T08:38:32;18.00;;;16.70;;
3423;SDS011;72707;50.120;8.500;2024-01-27T08:40:58;21.10;;;19.20;;
3423;SDS011;72707;50.120;8.500;2024-01-27T08:43:25;21.17;;;19.40;;
3423;SDS011;72707;50.120;8.500;2024-01-27T08:45:52;21.63;;;19.33;;
3423;SDS011;72707;50.120;8.500;2024-01-27T08:48:19;22.03;;;19.77;;
3423;SDS011;72707;50.120;8.500;2024-01-27T08:50:45;34.23;;;27.03;;
3423;SDS011;72707;50.120;8.500;2024-01-27T08:53:11;25.50;;;22.73;;
3423;SDS011;72707;50.120;8.500;2024-01-27T08:55:37;23.43;;;21.10;;
3423;SDS011;72707;50.120;8.500;2024-01-27T08:58:03;25.33;;;22.77;;
3423;SDS011;72707;50.120;8.500;2024-01-27T09:00:29;26.30;;;20.10;;
3423;SDS011;72707;50.120;8.500;2024-01-27T09:02:56;25.60;;;22.93;;
3423;SDS011;72707;50.120;8.500;2024-01-27T09:05:22;29.07;;;23.30;;
3423;SDS011;72707;50.120;8.500;2024-01-27T09:07:48;22.60;;;20.50;;
3423;SDS011;72707;50.120;8.500;2024-01-27T09:10:14;34.23;;;23.47;;
3423;SDS011;72707;50.120;8.500;2024-01-27T09:12:41;27.73;;;24.73;;
3423;SDS011;72707;50.120;8.500;2024-01-27T09:15:07;27.03;;;23.20;;
3423;SDS011;72707;50.120;8.500;2024-01-27T09:17:33;19.17;;;17.57;;
3423;SDS011;72707;50.120;8.500;2024-01-27T09:19:59;22.70;;;20.40;;
3423;SDS011;72707;50.120;8.500;2024-01-27T09:22:25;24.00;;;20.87;;
3423;SDS011;72707;50.120;8.500;2024-01-27T09:24:51;26.90;;;24.30;;
3423;SDS011;72707;50.120;8.500;2024-01-27T09:27:18;22.97;;;20.90;;
3423;SDS011;72707;50.120;8.500;2024-01-27T09:29:43;26.37;;;23.70;;
3423;SDS011;72707;50.120;8.500;2024-01-27T09:32:10;23.23;;;20.77;;
3423;SDS011;72707;50.120;8.500;2024-01-27T09:34:36;19.47;;;17.53;;
3423;SDS011;72707;50.120;8.500;2024-01-27T09:37:02;20.50;;;18.60;;
3423;SDS011;72707;50.120;8.500;2024-01-27T09:39:28;30.40;;;25.73;;
3423;SDS011;72707;50.120;8.500;2024-01-27T09:41:54;33.83;;;24.70;;
3423;SDS011;72707;50.120;8.500;2024-01-27T09:44:20;24.37;;;21.00;;
3423;SDS011;72707;50.120;8.500;2024-01-27T09:46:47;24.87;;;22.37;;
3423;SDS011;72707;50.120;8.500;2024-01-27T09:49:14;24.63;;;22.10;;
3423;SDS011;72707;50.120;8.500;2024-01-27T09:51:43;28.83;;;22.60;;
3423;SDS011;72707;50.120;8.500;2024-01-27T09:54:09;22.33;;;20.03;;
3423;SDS011;72707;50.120;8.500;2024-01-27T09:56:36;18.80;;;17.30;;
3423;SDS011;72707;50.120;8.500;2024-01-27T09:59:03;23.37;;;21.17;;
3423;SDS011;72707;50.120;8.500;2024-01-27T10:01:30;22.43;;;20.47;;
3423;SDS011;72707;50.120;8.500;2024-01-27T10:03:57;21.00;;;18.90;;
3423;SDS011;72707;50.120;8.500;2024-01-27T10:06:24;22.20;;;20.07;;
3423;SDS011;72707;50.120;8.500;2024-01-27T10:08:54;21.43;;;19.33;;
3423;SDS011;72707;50.120;8.500;2024-01-27T10:11:20;20.87;;;18.87;;
3423;SDS011;72707;50.120;8.500;2024-01-27T10:13:57;24.07;;;21.77;;
3423;SDS011;72707;50.120;8.500;2024-01-27T10:16:27;24.00;;;21.50;;
3423;SDS011;72707;50.120;8.500;2024-01-27T10:18:58;25.20;;;22.53;;
3423;SDS011;72707;50.120;8.500;2024-01-27T10:21:29;24.67;;;22.03;;
3423;SDS011;72707;50.120;8.500;2024-01-27T10:23:55;24.83;;;22.47;;
3423;SDS011;72707;50.120;8.500;2024-01-27T10:26:21;25.37;;;22.83;;
3423;SDS011;72707;50.120;8.500;2024-01-27T10:28:56;29.47;;;26.43;;
3423;SDS011;72707;50.120;8.500;2024-01-27T10:31:28;26.73;;;23.70;;
3423;SDS011;72707;50.120;8.500;2024-01-27T10:33:56;22.27;;;20.33;;
3423;SDS011;72707;50.120;8.500;2024-01-27T10:36:26;23.70;;;21.40;;
3423;SDS011;72707;50.120;8.500;2024-01-27T10:38:51;23.57;;;21.23;;
3423;SDS011;72707;50.120;8.500;2024-01-27T10:41:24;23.80;;;21.40;;
3423;SDS011;72707;50.120;8.500;2024-01-27T10:43:51;70.70;;;37.93;;
3423;SDS011;72707;50.120;8.500;2024-01-27T10:46:22;81.27;;;45.23;;
3423;SDS011;72707;50.120;8.500;2024-01-27T10:48:51;43.00;;;33.03;;
3423;SDS011;72707;50.120;8.500;2024-01-27T10:51:28;30.47;;;27.17;;
3423;SDS011;72707;50.120;8.500;2024-01-27T10:54:00;27.37;;;24.73;;
3423;SDS011;72707;50.120;8.500;2024-01-27T10:56:31;33.07;;;29.50;;
3423;SDS011;72707;50.120;8.500;2024-01-27T10:58:58;29.83;;;27.00;;
3423;SDS011;72707;50.120;8.500;2024-01-27T11:01:24;25.57;;;23.17;;
3423;SDS011;72707;50.120;8.500;2024-01-27T11:03:56;28.70;;;25.67;;
3423;SDS011;72707;50.120;8.500;2024-01-27T11:06:23;31.40;;;26.90;;
3423;SDS011;72707;50.120;8.500;2024-01-27T11:08:49;32.13;;;28.80;;
3423;SDS011;72707;50.120;8.500;2024-01-27T11:11:17;24.90;;;22.53;;
3423;SDS011;72707;50.120;8.500;2024-01-27T11:13:44;30.43;;;27.17;;
3423;SDS011;72707;50.120;8.500;2024-01-27T11:16:16;28.80;;;25.80;;
3423;SDS011;72707;50.120;8.500;2024-01-27T11:18:43;30.13;;;27.13;;
3423;SDS011;72707;50.120;8.500;2024-01-27T11:21:16;28.13;;;25.63;;
3423;SDS011;72707;50.120;8.500;2024-01-27T11:23:44;28.87;;;26.37;;
3423;SDS011;72707;50.120;8.500;2024-01-27T11:26:16;30.43;;;27.33;;
3423;SDS011;72707;50.120;8.500;2024-01-27T11:28:46;27.10;;;24.30;;
3423;SDS011;72707;50.120;8.500;2024-01-27T11:31:16;23.57;;;21.93;;
3423;SDS011;72707;50.120;8.500;2024-01-27T11:33:44;28.93;;;26.20;;
3423;SDS011;72707;50.120;8.500;2024-01-27T11:36:18;39.53;;;33.00;;
3423;SDS011;72707;50.120;8.500;2024-01-27T11:38:47;26.83;;;24.33;;
3423;SDS011;72707;50.120;8.500;2024-01-27T11:41:12;28.00;;;25.53;;
3423;SDS011;72707;50.120;8.500;2024-01-27T11:43:51;26.83;;;24.73;;
3423;SDS011;72707;50.120;8.500;2024-01-27T11:46:18;29.10;;;26.33;;
3423;SDS011;72707;50.120;8.500;2024-01-27T11:48:43;34.93;;;30.40;;
3423;SDS011;72707;50.120;8.500;2024-01-27T11:51:14;28.80;;;26.27;;
3423;SDS011;72707;50.120;8.500;2024-01-27T11:53:40;29.37;;;26.43;;
3423;SDS011;72707;50.120;8.500;2024-01-27T11:56:06;29.60;;;26.70;;
3423;SDS011;72707;50.120;8.500;2024-01-27T11:58:32;26.10;;;23.93;;
3423;SDS011;72707;50.120;8.500;2024-01-27T12:00:59;22.33;;;20.60;;
3423;SDS011;72707;50.120;8.500;2024-01-27T12:03:26;24.23;;;21.97;;
3423;SDS011;72707;50.120;8.500;2024-01-27T12:05:54;28.63;;;25.03;;
3423;SDS011;72707;50.120;8.500;2024-01-27T12:08:20;24.23;;;22.13;;
3423;SDS011;72707;50.120;8.500;2024-01-27T12:10:46;24.17;;;21.83;;
3423;SDS011;72707;50.120;8.500;2024-01-27T12:13:12;29.53;;;26.43;;
3423;SDS011;72707;50.120;8.500;2024-01-27T12:15:38;23.17;;;21.13;;
3423;SDS011;72707;50.120;8.500;2024-01-27T12:18:04;30.53;;;27.00;;
3423;SDS011;72707;50.120;8.500;2024-01-27T12:20:30;25.17;;;21.70;;
3423;SDS011;72707;50.120;8.500;2024-01-27T12:23:03;23.23;;;21.30;;
3423;SDS011;72707;50.120;8.500;2024-01-27T12:25:53;21.30;;;19.57;;
3423;SDS011;72707;50.120;8.500;2024-01-27T12:28:21;26.57;;;24.00;;
3423;SDS011;72707;50.120;8.500;2024-01-27T12:30:48;27.33;;;23.57;;
3423;SDS011;72707;50.120;8.500;2024-01-27T12:33:15;21.23;;;19.50;;
3423;SDS011;72707;50.120;8.500;2024-01-27T12:35:44;22.80;;;20.60;;
3423;SDS011;72707;50.120;8.500;2024-01-27T12:38:10;34.73;;;26.60;;
3423;SDS011;72707;50.120;8.500;2024-01-27T12:40:37;25.47;;;23.23;;
3423;SDS011;72707;50.120;8.500;2024-01-27T12:43:03;21.73;;;19.63;;
3423;SDS011;72707;50.120;8.500;2024-01-27T12:45:30;25.60;;;23.33;;
3423;SDS011;72707;50.120;8.500;2024-01-27T12:47:56;22.63;;;20.60;;
3423;SDS011;72707;50.120;8.500;2024-01-27T12:50:24;30.40;;;27.27;;
3423;SDS011;72707;50.120;8.500;2024-01-27T12:52:50;27.00;;;23.43;;
3423;SDS011;72707;50.120;8.500;2024-01-27T12:55:17;26.80;;;24.37;;
3423;SDS011;72707;50.120;8.500;2024-01-27T12:57:42;28.93;;;25.93;;
3423;SDS011;72707;50.120;8.500;2024-01-27T13:00:08;37.17;;;34.03;;
3423;SDS011;72707;50.120;8.500;2024-01-27T13:02:34;69.43;;;62.43;;
3423;SDS011;72707;50.120;8.500;2024-01-27T13:05:01;80.17;;;71.97;;
3423;SDS011;72707;50.120;8.500;2024-01-27T13:07:26;89.00;;;79.53;;
3423;SDS011;72707;50.120;8.500;2024-01-27T13:09:53;88.03;;;78.90;;
3423;SDS011;72707;50.120;8.500;2024-01-27T13:12:19;84.20;;;75.70;;
3423;SDS011;72707;50.120;8.500;2024-01-27T13:14:44;89.53;;;80.43;;
3423;SDS011;72707;50.120;8.500;2024-01-27T13:17:10;66.53;;;60.13;;
3423;SDS011;72707;50.120;8.500;2024-01-27T13:19:36;70.80;;;64.27;;
3423;SDS011;72707;50.120;8.500;2024-01-27T13:22:01;75.10;;;67.47;;
3423;SDS011;72707;50.120;8.500;2024-01-27T13:24:28;73.93;;;66.70;;
3423;SDS011;72707;50.120;8.500;2024-01-27T13:26:54;74.43;;;67.27;;
3423;SDS011;72707;50.120;8.500;2024-01-27T13:29:21;75.93;;;68.83;;
3423;SDS011;72707;50.120;8.500;2024-01-27T13:31:48;74.53;;;67.63;;
3423;SDS011;72707;50.120;8.500;2024-01-27T13:34:14;86.80;;;78.67;;
3423;SDS011;72707;50.120;8.500;2024-01-27T13:36:40;75.20;;;68.77;;
3423;SDS011;72707;50.120;8.500;2024-01-27T13:39:05;122.93;;;110.40;;
3423;SDS011;72707;50.120;8.500;2024-01-27T13:41:31;129.27;;;116.27;;
3423;SDS011;72707;50.120;8.500;2024-01-27T13:43:58;128.40;;;115.67;;
3423;SDS011;72707;50.120;8.500;2024-01-27T13:46:24;158.43;;;142.43;;
3423;SDS011;72707;50.120;8.500;2024-01-27T13:48:49;181.43;;;163.13;;
3423;SDS011;72707;50.120;8.500;2024-01-27T13:51:15;174.63;;;157.70;;
3423;SDS011;72707;50.120;8.500;2024-01-27T13:53:41;143.07;;;129.93;;
3423;SDS011;72707;50.120;8.500;2024-01-27T13:56:07;159.03;;;144.80;;
3423;SDS011;72707;50.120;8.500;2024-01-27T13:58:34;187.03;;;169.87;;
3423;SDS011;72707;50.120;8.500;2024-01-27T14:01:00;167.57;;;152.20;;
3423;SDS011;72707;50.120;8.500;2024-01-27T14:03:26;178.40;;;161.90;;
3423;SDS011;72707;50.120;8.500;2024-01-27T14:05:52;122.83;;;112.60;;
3423;SDS011;72707;50.120;8.500;2024-01-27T14:08:18;116.90;;;107.67;;
3423;SDS011;72707;50.120;8.500;2024-01-27T14:10:47;140.17;;;127.70;;
3423;SDS011;72707;50.120;8.500;2024-01-27T14:13:15;111.67;;;102.57;;
3423;SDS011;72707;50.120;8.500;2024-01-27T14:15:47;108.37;;;99.07;;
3423;SDS011;72707;50.120;8.500;2024-01-27T14:18:13;111.60;;;102.13;;
3423;SDS011;72707;50.120;8.500;2024-01-27T14:20:45;107.30;;;98.50;;
3423;SDS011;72707;50.120;8.500;2024-01-27T14:23:11;167.33;;;152.27;;
3423;SDS011;72707;50.120;8.500;2024-01-27T14:25:37;125.83;;;115.43;;
3423;SDS011;72707;50.120;8.500;2024-01-27T14:28:08;133.77;;;122.00;;
3423;SDS011;72707;50.120;8.500;2024-01-27T14:30:36;92.53;;;84.57;;
3423;SDS011;72707;50.120;8.500;2024-01-27T14:33:02;86.03;;;78.03;;